Time;durP1;ratioP1;P1;durP2;ratioP2;P2;SDS_P1;SDS_P2;PMS_P1;PMS_P2;Temp;Humidity;BMP_temperature;BMP_pressure;BME280_temperature;BME280_humidity;BME280_pressure;Samples;Min_cycle;Max_cycle;Signal;HPM_P1;HPM_P2
2022/04/23 00:01:21;;;;;;;19.98;13.68;;;;;;;11.50;81.88;99386.56;8374384;28;20501;-62
2022/04/23 00:05:21;;;;;;;19.15;14.27;;;;;;;11.52;81.78;99378.28;8357195;28;20124;-63
2022/04/23 00:09:22;;;;;;;21.83;15.45;;;;;;;11.52;82.02;99384.53;8358068;28;20122;-62
2022/04/23 00:13:23;;;;;;;19.92;13.85;;;;;;;11.54;81.57;99377.09;8358038;28;20555;-62
2022/04/23 00:17:23;;;;;;;19.98;14.60;;;;;;;11.44;82.03;99381.84;8358320;28;20493;-62
2022/04/23 00:21:24;;;;;;;21.00;15.13;;;;;;;11.48;81.81;99380.50;8358354;28;20450;-62
2022/04/23 00:25:25;;;;;;;22.08;15.20;;;;;;;11.58;81.44;99378.44;8357482;28;20505;-62
2022/04/23 00:29:26;;;;;;;22.00;15.18;;;;;;;11.46;81.90;99377.13;8382490;28;20037;-62
2022/04/23 00:33:26;;;;;;;21.85;15.30;;;;;;;11.42;82.30;99378.50;8375042;28;20083;-62
2022/04/23 00:37:27;;;;;;;22.35;14.70;;;;;;;11.46;81.98;99385.25;8372985;28;20057;-62
2022/04/23 00:41:52;;;;;;;23.90;15.00;;;;;;;11.35;82.47;99372.06;8373250;28;20044;-63
2022/04/23 00:45:52;;;;;;;21.60;15.05;;;;;;;11.36;82.72;99375.63;8357081;28;20044;-63
2022/04/23 00:49:53;;;;;;;25.35;15.40;;;;;;;11.24;83.36;99368.88;8357202;28;20045;-63
2022/04/23 00:53:54;;;;;;;22.48;14.70;;;;;;;11.26;83.60;99372.28;8356908;28;20098;-63
2022/04/23 00:57:56;;;;;;;23.58;15.50;;;;;;;11.10;84.30;99378.56;8372871;28;20048;-63
2022/04/23 01:01:56;;;;;;;25.70;17.48;;;;;;;11.11;84.29;99385.69;8372653;28;20564;-61
2022/04/23 01:05:57;;;;;;;22.42;16.20;;;;;;;11.11;84.29;99380.25;8372161;28;20528;-61
2022/04/23 01:09:57;;;;;;;24.23;16.33;;;;;;;11.15;83.93;99375.34;8372886;28;20119;-62
2022/04/23 01:14:00;;;;;;;23.58;16.17;;;;;;;11.08;84.29;99375.19;8356977;28;20067;-62
2022/04/23 01:18:01;;;;;;;25.27;17.17;;;;;;;11.01;84.51;99385.00;8369560;28;20048;-63
2022/04/23 01:22:02;;;;;;;24.52;17.40;;;;;;;10.92;85.18;99380.59;8358043;28;20045;-62
2022/04/23 01:26:04;;;;;;;26.27;17.65;;;;;;;10.87;85.69;99371.31;8356722;28;20065;-62
2022/04/23 01:30:07;;;;;;;26.40;19.02;;;;;;;10.97;85.30;99378.25;8372293;28;20045;-62
2022/04/23 01:34:07;;;;;;;25.17;18.55;;;;;;;10.97;85.19;99375.53;8371720;28;20037;-63
2022/04/23 01:38:08;;;;;;;28.73;19.07;;;;;;;10.95;85.56;99374.84;8372232;28;20044;-62
2022/04/23 01:42:08;;;;;;;28.48;18.73;;;;;;;10.95;85.64;99364.03;8356973;28;20283;-62
2022/04/23 01:46:09;;;;;;;27.05;17.83;;;;;;;10.88;85.84;99368.44;8371258;28;20498;-63
2022/04/23 01:50:09;;;;;;;24.85;18.13;;;;;;;10.79;86.70;99372.16;8356644;28;20408;-62
2022/04/23 01:54:10;;;;;;;29.17;18.70;;;;;;;10.70;87.31;99373.19;8372962;28;20041;-62
2022/04/23 01:58:10;;;;;;;27.98;17.88;;;;;;;10.80;87.26;99371.16;8360324;28;20130;-62
2022/04/23 02:02:10;;;;;;;27.73;18.42;;;;;;;10.70;87.33;99381.28;8361423;28;20048;-62
2022/04/23 02:06:13;;;;;;;30.08;19.27;;;;;;;10.64;87.78;99376.56;8361631;28;20055;-63
2022/04/23 02:10:15;;;;;;;25.52;17.67;;;;;;;10.58;87.91;99374.53;8386061;28;20089;-62
2022/04/23 02:14:15;;;;;;;28.75;18.92;;;;;;;10.49;88.36;99375.53;8361954;28;20036;-62
2022/04/23 02:18:16;;;;;;;26.83;17.90;;;;;;;10.30;89.40;99383.97;8361991;28;20033;-62
2022/04/23 02:22:17;;;;;;;25.30;17.30;;;;;;;10.19;89.76;99381.59;8377377;28;20068;-62
2022/04/23 02:26:17;;;;;;;28.42;18.15;;;;;;;10.23;90.14;99382.09;8361424;28;20044;-63
2022/04/23 02:30:20;;;;;;;29.40;19.58;;;;;;;10.17;90.14;99389.00;8361907;28;20119;-62
2022/04/23 02:34:21;;;;;;;31.58;19.25;;;;;;;10.15;90.86;99382.09;8376060;28;20043;-62
2022/04/23 02:38:21;;;;;;;28.98;18.55;;;;;;;10.11;90.96;99373.47;8361149;28;20025;-62
2022/04/23 02:42:22;;;;;;;28.30;19.70;;;;;;;9.79;92.77;99378.75;8356276;28;20056;-62
2022/04/23 02:46:24;;;;;;;30.45;19.13;;;;;;;9.74;93.85;99381.09;8357318;28;20276;-62
2022/04/23 02:50:29;;;;;;;31.50;19.35;;;;;;;9.80;93.87;99383.16;8374004;28;20493;-62
2022/04/23 02:54:29;;;;;;;32.13;21.55;;;;;;;9.74;93.57;99375.69;8358008;28;20078;-62
2022/04/23 02:58:29;;;;;;;31.55;21.73;;;;;;;9.74;94.35;99383.78;8378748;28;20057;-62
2022/04/23 03:02:30;;;;;;;34.65;21.27;;;;;;;9.69;94.33;99378.88;8377600;28;20029;-62
2022/04/23 03:06:31;;;;;;;32.50;22.02;;;;;;;9.71;94.59;99382.28;8360468;28;20099;-62
2022/04/23 03:10:31;;;;;;;33.85;21.75;;;;;;;9.79;94.56;99373.38;8361030;28;20044;-62
2022/04/23 03:14:32;;;;;;;35.42;21.23;;;;;;;9.89;93.91;99374.88;8360021;28;20520;-62
2022/04/23 03:18:33;;;;;;;33.42;20.98;;;;;;;9.88;93.78;99369.66;8360283;28;20086;-62
2022/04/23 03:22:34;;;;;;;34.08;21.60;;;;;;;9.71;94.37;99365.22;8359893;28;20082;-62
2022/04/23 03:26:34;;;;;;;35.40;22.52;;;;;;;9.62;95.42;99360.81;8375146;28;20044;-62
2022/04/23 03:30:34;;;;;;;33.53;22.02;;;;;;;9.57;95.35;99363.13;8359903;28;20033;-63
2022/04/23 03:34:35;;;;;;;36.35;22.05;;;;;;;9.45;96.23;99365.28;8359263;28;20033;-63
2022/04/23 03:38:35;;;;;;;37.42;23.33;;;;;;;9.56;96.52;99356.06;8375024;28;20037;-63
2022/04/23 03:42:36;;;;;;;34.70;22.35;;;;;;;9.54;96.99;99363.47;8359040;28;20041;-63
2022/04/23 03:46:37;;;;;;;41.13;24.20;;;;;;;9.55;97.22;99359.78;8359671;28;20052;-63
2022/04/23 03:50:37;;;;;;;32.78;22.50;;;;;;;9.57;96.92;99352.34;8365907;28;20033;-63
2022/04/23 03:54:38;;;;;;;36.53;23.40;;;;;;;9.40;97.24;99350.59;8358507;28;20516;-63
2022/04/23 03:58:38;;;;;;;38.05;22.35;;;;;;;9.27;98.12;99355.59;8359029;28;20025;-63
2022/04/23 04:02:39;;;;;;;36.30;22.45;;;;;;;9.18;98.55;99362.78;8358597;28;20754;-63
2022/04/23 04:06:40;;;;;;;37.17;24.58;;;;;;;9.36;98.62;99360.00;8373859;28;20037;-63
2022/04/23 04:10:40;;;;;;;38.78;23.65;;;;;;;9.41;98.04;99353.13;8374286;28;20033;-63
2022/04/23 04:14:42;;;;;;;37.78;22.60;;;;;;;9.48;98.25;99353.31;8373029;28;22230;-63
2022/04/23 04:18:45;;;;;;;39.65;23.48;;;;;;;9.43;98.58;99351.09;8358563;28;20049;-63
2022/04/23 04:22:45;;;;;;;36.40;23.52;;;;;;;9.40;98.59;99350.59;8358104;28;20065;-63
2022/04/23 04:26:47;;;;;;;34.97;22.65;;;;;;;9.42;98.73;99353.97;8373348;28;20500;-63
2022/04/23 04:31:49;;;;;;;40.08;23.40;;;;;;;9.39;98.50;99346.19;8358575;28;20045;-63
2022/04/23 04:35:09;;;;;;;40.45;23.40;;;;;;;9.33;98.96;99349.56;8365719;28;20412;-63
2022/04/23 04:39:10;;;;;;;38.63;23.52;;;;;;;9.16;99.73;99342.38;8370629;28;20048;-63
2022/04/23 04:43:10;;;;;;;38.88;22.38;;;;;;;9.23;100.00;99351.50;8376998;28;20058;-62
2022/04/23 04:47:11;;;;;;;39.08;23.60;;;;;;;9.15;100.00;99346.09;8357881;28;20079;-64
2022/04/23 04:51:11;;;;;;;37.30;23.73;;;;;;;9.34;99.50;99348.56;8357945;28;20048;-64
2022/04/23 04:55:12;;;;;;;38.13;24.05;;;;;;;9.40;99.41;99342.50;8357316;28;20040;-62
2022/04/23 04:59:12;;;;;;;36.13;23.95;;;;;;;9.37;99.38;99342.84;8357693;28;20067;-62
2022/04/23 05:03:13;;;;;;;37.80;23.65;;;;;;;9.45;99.11;99349.09;8356918;28;20053;-62
2022/04/23 05:07:13;;;;;;;36.15;23.08;;;;;;;9.41;98.79;99345.06;8357839;28;20435;-62
2022/04/23 05:11:13;;;;;;;34.83;22.73;;;;;;;9.47;98.45;99351.63;8373240;28;20030;-62
2022/04/23 05:15:14;;;;;;;36.03;23.08;;;;;;;9.66;97.80;99346.84;8357042;28;20393;-62
2022/04/23 05:19:14;;;;;;;35.90;22.73;;;;;;;9.74;97.46;99348.72;8356647;28;20489;-62
2022/04/23 05:23:15;;;;;;;38.13;23.42;;;;;;;9.82;97.09;99362.22;8356969;28;20041;-62
2022/04/23 05:27:15;;;;;;;36.33;22.63;;;;;;;10.00;96.56;99349.44;8361436;28;20032;-62
2022/04/23 05:31:16;;;;;;;33.33;21.95;;;;;;;10.20;95.68;99342.78;8368587;28;20068;-62
2022/04/23 05:35:16;;;;;;;33.50;21.23;;;;;;;10.46;94.72;99340.75;8369953;28;20045;-62
2022/04/23 05:39:17;;;;;;;32.70;21.33;;;;;;;10.56;94.71;99346.84;8367982;28;20638;-62
2022/04/23 05:43:17;;;;;;;34.75;21.48;;;;;;;10.74;93.48;99349.38;8369619;28;20045;-62
2022/04/23 05:47:17;;;;;;;30.52;21.35;;;;;;;10.87;92.86;99361.38;8361880;28;20112;-63
2022/04/23 05:51:18;;;;;;;34.17;21.83;;;;;;;11.11;92.07;99347.81;8359645;28;20108;-63
2022/04/23 05:55:18;;;;;;;31.33;20.65;;;;;;;11.34;90.18;99347.88;8365185;28;20045;-62
2022/04/23 05:59:19;;;;;;;31.67;22.05;;;;;;;11.53;89.90;99358.34;8370260;28;20047;-62
2022/04/23 06:03:20;;;;;;;33.53;21.33;;;;;;;11.72;88.83;99353.34;8376634;28;20061;-63
2022/04/23 06:07:20;;;;;;;32.33;21.08;;;;;;;11.92;87.98;99358.34;8363381;28;20044;-63
2022/04/23 06:11:21;;;;;;;33.05;20.75;;;;;;;12.09;87.86;99360.78;8383317;28;20094;-63
2022/04/23 06:15:21;;;;;;;35.17;21.63;;;;;;;12.39;85.62;99361.78;8376555;28;20457;-63
2022/04/23 06:19:21;;;;;;;30.80;21.30;;;;;;;12.53;85.73;99364.53;8362323;28;20039;-63
2022/04/23 06:23:22;;;;;;;32.70;21.25;;;;;;;12.67;83.68;99360.19;8360434;28;20064;-63
2022/04/23 06:27:22;;;;;;;35.05;21.85;;;;;;;12.66;84.08;99362.06;8365584;28;20101;-63
2022/04/23 06:31:23;;;;;;;32.33;21.33;;;;;;;12.77;83.19;99361.63;8361714;28;20508;-63
2022/04/23 06:35:24;;;;;;;33.90;22.00;;;;;;;12.90;82.29;99350.19;8362271;28;20033;-63
2022/04/23 06:39:24;;;;;;;31.95;20.17;;;;;;;13.01;81.31;99360.59;8360542;28;20036;-63
2022/04/23 06:43:25;;;;;;;29.67;20.10;;;;;;;13.26;80.93;99348.47;8358347;28;20036;-63
2022/04/23 06:47:25;;;;;;;28.67;18.65;;;;;;;13.31;79.63;99349.59;8376676;28;20029;-63
2022/04/23 06:51:26;;;;;;;24.10;17.65;;;;;;;13.40;79.48;99347.63;8359752;28;20037;-63
2022/04/23 06:55:26;;;;;;;24.20;15.48;;;;;;;13.60;78.70;99337.88;8362460;28;20052;-63
2022/04/23 06:59:27;;;;;;;23.92;16.20;;;;;;;13.83;78.71;99344.91;8368193;28;20465;-63
2022/04/23 07:03:27;;;;;;;25.42;15.43;;;;;;;13.90;77.61;99342.25;8374489;28;20047;-63
2022/04/23 07:07:27;;;;;;;20.95;14.88;;;;;;;14.09;76.96;99344.34;8376897;28;20090;-63
2022/04/23 07:11:28;;;;;;;23.55;16.05;;;;;;;14.14;76.28;99335.63;8363395;28;20492;-63
2022/04/23 07:15:29;;;;;;;25.63;15.10;;;;;;;14.40;76.33;99336.81;8355319;28;20079;-62
2022/04/23 07:19:30;;;;;;;22.08;14.75;;;;;;;14.45;74.86;99328.88;8358603;28;20041;-63
2022/04/23 07:24:31;;;;;;;16.90;12.70;;;;;;;14.68;74.59;99328.69;8357488;28;20083;-64
2022/04/23 07:27:51;;;;;;;19.00;13.55;;;;;;;14.73;73.49;99335.22;8358338;28;20098;-63
2022/04/23 07:31:51;;;;;;;19.87;13.00;;;;;;;14.77;74.24;99336.53;8381254;28;20556;-63
2022/04/23 07:40:12;;;;;;;18.77;13.38;;;;;;;14.78;73.64;99332.75;8361796;28;20459;-62
2022/04/23 07:44:12;;;;;;;19.77;13.32;;;;;;;14.98;72.66;99339.19;8366538;28;20102;-62
2022/04/23 07:48:15;;;;;;;16.30;12.23;;;;;;;14.78;72.69;99338.19;8374138;28;20409;-62
2022/04/23 07:52:16;;;;;;;18.00;11.93;;;;;;;15.00;72.62;99349.88;8355138;28;20399;-62
2022/04/23 07:56:17;;;;;;;15.95;11.25;;;;;;;15.21;71.21;99347.97;8357781;28;20041;-63
2022/04/23 08:00:17;;;;;;;14.98;11.65;;;;;;;15.33;70.94;99353.69;8361007;28;20065;-63
2022/04/23 08:04:18;;;;;;;14.18;11.00;;;;;;;15.45;71.27;99339.38;8353342;28;20044;-62
2022/04/23 08:08:19;;;;;;;15.80;10.90;;;;;;;15.66;71.31;99341.16;8372314;28;20111;-62
2022/04/23 08:12:20;;;;;;;15.27;11.60;;;;;;;15.49;70.89;99351.53;8353874;28;20145;-63
2022/04/23 08:16:20;;;;;;;15.63;11.32;;;;;;;15.83;71.77;99345.25;8369681;28;20041;-62
2022/04/23 08:20:21;;;;;;;11.23;9.90;;;;;;;16.32;69.70;99343.13;8370772;28;20029;-62
2022/04/23 08:24:21;;;;;;;14.25;10.13;;;;;;;16.42;68.77;99348.16;8356297;28;20045;-63
2022/04/23 08:32:42;;;;;;;14.65;9.65;;;;;;;16.35;67.98;99339.94;8362360;28;20048;-62
2022/04/23 08:36:43;;;;;;;10.35;8.63;;;;;;;16.51;68.27;99347.81;8357641;28;20068;-62
2022/04/23 08:40:44;;;;;;;14.30;9.77;;;;;;;16.73;67.67;99345.72;8350825;28;20057;-63
2022/04/23 08:44:45;;;;;;;10.80;8.07;;;;;;;16.98;67.92;99344.06;8350013;28;20049;-63
2022/04/23 08:48:49;;;;;;;10.75;8.50;;;;;;;17.16;66.36;99330.59;8351251;28;20124;-63
2022/04/23 08:52:54;;;;;;;11.10;8.50;;;;;;;17.14;66.58;99332.72;8353164;28;20120;-63
2022/04/23 08:56:54;;;;;;;10.05;8.82;;;;;;;17.04;66.16;99337.75;8360626;28;20037;-63
2022/04/23 09:00:55;;;;;;;12.85;8.60;;;;;;;17.43;64.58;99327.66;8340643;28;20037;-63
2022/04/23 09:04:55;;;;;;;13.95;9.00;;;;;;;17.46;63.49;99334.59;8349186;28;20045;-63
2022/04/23 09:09:13;;;;;;;10.52;8.70;;;;;;;17.55;64.55;99325.13;8364646;28;20087;-63
2022/04/23 09:13:31;;;;;;;13.95;8.50;;;;;;;17.63;63.65;99328.44;8349728;28;20033;-63
2022/04/23 09:26:18;;;;;;;11.68;8.95;;;;;;;17.61;62.75;99324.25;8357989;28;20419;-63
2022/04/23 09:30:19;;;;;;;11.30;8.98;;;;;;;17.89;62.69;99310.25;8342651;28;20043;-63
2022/04/23 09:34:21;;;;;;;11.20;8.90;;;;;;;18.23;61.84;99307.16;8347213;28;20040;-63
2022/04/23 09:38:23;;;;;;;11.25;8.35;;;;;;;18.25;62.16;99311.38;8366732;28;20064;-63
2022/04/23 09:42:23;;;;;;;11.68;8.25;;;;;;;18.76;59.96;99314.81;8342573;28;20102;-63
2022/04/23 09:46:23;;;;;;;11.90;7.88;;;;;;;19.61;57.89;99318.72;8350275;28;20529;-63
2022/04/23 09:50:24;;;;;;;12.57;8.05;;;;;;;20.37;56.34;99303.44;8367372;28;20037;-63
2022/04/23 09:54:27;;;;;;;9.57;8.00;;;;;;;20.70;54.88;99303.75;8358735;28;20076;-63
2022/04/23 09:58:31;;;;;;;12.60;7.72;;;;;;;21.17;53.39;99316.56;8374862;28;20452;-63
2022/04/23 10:02:32;;;;;;;9.68;7.55;;;;;;;21.51;53.88;99310.22;8366132;28;20060;-63
2022/04/23 10:06:35;;;;;;;10.32;7.60;;;;;;;21.81;53.07;99302.69;8350826;28;20057;-64
2022/04/23 10:10:44;;;;;;;11.45;8.10;;;;;;;21.19;53.43;99319.88;8361875;28;20050;-64
2022/04/23 10:14:49;;;;;;;9.35;7.35;;;;;;;21.95;52.95;99315.09;8353733;28;20047;-63
2022/04/23 10:18:51;;;;;;;10.10;7.55;;;;;;;21.96;52.55;99300.22;8373055;28;20037;-63
2022/04/23 10:23:00;;;;;;;8.52;7.63;;;;;;;22.66;51.85;99284.31;8348623;28;20533;-62
2022/04/23 10:27:07;;;;;;;8.77;7.68;;;;;;;22.60;51.16;99297.13;8363325;28;20163;-62
2022/04/23 10:31:16;;;;;;;14.18;11.52;;;;;;;22.66;52.87;99290.63;8353548;28;20040;-62
2022/04/23 10:35:23;;;;;;;10.20;7.78;;;;;;;22.65;50.81;99300.00;8351956;28;20045;-62
2022/04/23 10:39:23;;;;;;;8.88;7.22;;;;;;;22.85;51.36;99294.88;8340740;28;20047;-63
2022/04/23 10:43:25;;;;;;;13.13;7.20;;;;;;;22.69;51.35;99287.38;8347462;28;20037;-63
2022/04/23 10:47:32;;;;;;;8.20;7.50;;;;;;;22.05;52.42;99296.03;8352592;28;20433;-63
2022/04/23 10:51:44;;;;;;;9.57;7.45;;;;;;;22.21;51.49;99286.16;8365923;28;20122;-63
2022/04/23 10:56:05;;;;;;;11.07;7.75;;;;;;;22.27;50.86;99290.69;8353384;28;20422;-64
2022/04/23 11:00:17;;;;;;;29.30;17.27;;;;;;;22.76;50.64;99265.19;8356497;28;20179;-63
2022/04/23 11:04:20;;;;;;;22.95;15.68;;;;;;;22.30;50.74;99295.72;8357556;28;20037;-64
2022/04/23 11:12:36;;;;;;;11.32;8.75;;;;;;;23.00;50.51;99278.56;8409422;27;20241;-61
2022/04/23 11:16:53;;;;;;;14.63;8.98;;;;;;;22.60;49.96;99279.78;8354493;28;20626;-63
2022/04/23 11:20:55;;;;;;;12.32;8.85;;;;;;;22.84;51.98;99271.13;8369410;28;20060;-62
2022/04/23 11:24:57;;;;;;;12.68;8.55;;;;;;;22.44;50.26;99275.88;8376429;28;20049;-62
2022/04/23 11:28:59;;;;;;;9.63;7.28;;;;;;;21.76;51.65;99279.72;8371033;28;20098;-62
2022/04/23 11:33:15;;;;;;;8.27;7.45;;;;;;;22.55;50.57;99272.28;8383687;28;20314;-62
2022/04/23 11:37:31;;;;;;;7.82;6.88;;;;;;;22.68;51.47;99271.94;8369023;28;20048;-62
2022/04/23 11:41:36;;;;;;;6.70;6.00;;;;;;;23.38;48.60;99263.16;8371552;28;20098;-63
2022/04/23 11:45:45;;;;;;;8.82;7.22;;;;;;;23.07;48.77;99248.91;8378626;28;20043;-63
2022/04/23 11:49:45;;;;;;;12.02;7.80;;;;;;;22.45;49.96;99255.50;8370696;28;20041;-64
2022/04/23 11:54:01;;;;;;;9.63;7.68;;;;;;;22.38;50.62;99252.06;8376386;28;20252;-64
2022/04/23 11:58:04;;;;;;;9.27;8.30;;;;;;;21.83;51.77;99253.72;8383546;28;20406;-62
2022/04/23 12:02:08;;;;;;;8.07;7.28;;;;;;;20.77;52.65;99261.38;8380716;28;20167;-63
2022/04/23 12:06:09;;;;;;;13.68;8.40;;;;;;;20.46;53.84;99258.94;8386859;28;20081;-63
2022/04/23 12:10:09;;;;;;;9.30;8.20;;;;;;;20.36;54.73;99260.56;8376081;28;20106;-63
2022/04/23 12:14:09;;;;;;;15.60;7.13;;;;;;;20.18;54.48;99255.97;8375451;28;20813;-63
2022/04/23 12:18:14;;;;;;;12.25;5.93;;;;;;;20.26;54.52;99254.81;8367341;28;20099;-63
2022/04/23 12:22:31;;;;;;;12.23;7.03;;;;;;;20.12;54.32;99245.03;8393176;28;20041;-63
2022/04/23 12:26:36;;;;;;;9.13;6.50;;;;;;;20.09;54.32;99261.97;8353018;28;20127;-65
2022/04/23 12:40:51;;;;;;;16.92;6.90;;;;;;;19.53;56.82;99237.59;8348258;28;20512;-63
2022/04/23 12:43:39;;;;;;;7.70;6.80;;;;;;;19.64;56.08;99233.25;8349697;28;20530;-63
2022/04/23 12:47:40;;;;;;;11.07;7.10;;;;;;;19.63;55.16;99234.31;8347172;28;20043;-63
2022/04/23 12:51:55;;;;;;;8.57;6.80;;;;;;;19.70;55.45;99226.88;8357746;28;20095;-63
2022/04/23 12:55:56;;;;;;;9.15;6.97;;;;;;;19.67;56.02;99224.59;8350391;28;20404;-63
2022/04/23 12:59:57;;;;;;;8.40;5.82;;;;;;;19.58;56.46;99220.47;8349091;28;20040;-62
2022/04/23 13:03:57;;;;;;;11.60;6.47;;;;;;;19.79;56.43;99211.75;8354157;28;20051;-63
2022/04/23 13:08:59;;;;;;;8.02;5.45;;;;;;;19.79;55.01;99222.75;8356840;28;20643;-63
2022/04/23 13:12:18;;;;;;;7.57;5.65;;;;;;;19.65;54.88;99221.22;8351113;28;20682;-63
2022/04/23 13:16:20;;;;;;;8.25;5.47;;;;;;;19.84;55.91;99203.66;8360195;28;20419;-63
2022/04/23 13:20:21;;;;;;;7.32;6.15;;;;;;;19.57;55.12;99210.59;8351385;28;20036;-63
2022/04/23 13:24:21;;;;;;;6.68;6.03;;;;;;;19.43;54.64;99205.25;8350943;28;20045;-63
2022/04/23 13:28:23;;;;;;;8.57;6.17;;;;;;;19.55;55.85;99218.19;8353262;28;20123;-63
2022/04/23 13:32:24;;;;;;;10.00;5.95;;;;;;;19.48;55.29;99219.09;8356656;28;20313;-62
2022/04/23 13:36:24;;;;;;;14.23;8.10;;;;;;;19.58;56.46;99201.28;8333091;28;20098;-63
2022/04/23 13:40:24;;;;;;;9.43;8.18;;;;;;;19.58;57.90;99215.84;8342076;28;20064;-64
2022/04/23 13:44:25;;;;;;;8.25;7.00;;;;;;;19.28;56.07;99191.06;8342814;28;20124;-63
2022/04/23 13:48:26;;;;;;;7.72;5.75;;;;;;;19.18;55.47;99209.94;8345086;28;20465;-63
2022/04/23 13:52:27;;;;;;;12.82;6.47;;;;;;;19.17;56.10;99189.09;8343488;28;20162;-62
2022/04/23 13:56:27;;;;;;;10.73;7.28;;;;;;;19.22;56.08;99189.22;8336978;28;20070;-62
2022/04/23 14:00:28;;;;;;;8.85;5.78;;;;;;;19.39;56.42;99189.47;8332622;28;20101;-62
2022/04/23 14:10:04;;;;;;;10.20;6.07;;;;;;;19.36;55.67;99188.03;8338042;28;20424;-64
2022/04/23 14:13:09;;;;;;;10.68;8.20;;;;;;;19.27;55.97;99186.66;8343121;28;20052;-62
2022/04/23 14:17:09;;;;;;;14.43;10.33;;;;;;;19.26;57.21;99190.50;8344403;28;20556;-62
2022/04/23 14:21:10;;;;;;;14.18;10.07;;;;;;;19.16;56.28;99179.16;8346607;28;20295;-63
2022/04/23 14:25:10;;;;;;;17.90;11.23;;;;;;;19.29;57.29;99180.97;8347135;28;20049;-63
2022/04/23 14:29:11;;;;;;;17.30;11.17;;;;;;;19.32;57.27;99177.78;8361871;28;20041;-63
2022/04/23 14:33:12;;;;;;;13.93;9.77;;;;;;;19.40;57.99;99178.28;8355325;28;20798;-63
2022/04/23 14:37:12;;;;;;;16.20;11.27;;;;;;;19.26;57.75;99184.13;8340730;28;20509;-63
2022/04/23 14:41:13;;;;;;;15.70;11.23;;;;;;;19.48;57.14;99172.50;8343064;28;20398;-63
2022/04/23 14:45:18;;;;;;;18.10;11.90;;;;;;;19.46;56.85;99187.50;8351348;28;20351;-63
2022/04/23 14:49:19;;;;;;;14.48;10.85;;;;;;;19.48;56.92;99176.31;8350636;28;20431;-64
2022/04/23 14:53:20;;;;;;;13.15;9.15;;;;;;;19.16;56.23;99170.94;8351231;28;20124;-65
2022/04/23 14:57:21;;;;;;;10.70;8.07;;;;;;;19.25;55.76;99175.06;8349726;28;20036;-64
2022/04/23 15:01:21;;;;;;;11.45;7.93;;;;;;;19.20;55.40;99174.06;8357374;28;20503;-63
2022/04/23 15:05:22;;;;;;;11.30;7.63;;;;;;;18.90;55.26;99175.88;8352211;28;20560;-64
2022/04/23 15:09:22;;;;;;;13.65;7.25;;;;;;;18.97;54.96;99169.28;8355410;28;20049;-65
2022/04/23 15:13:23;;;;;;;10.98;7.50;;;;;;;18.95;54.23;99167.84;8348862;28;20037;-64
2022/04/23 15:17:24;;;;;;;9.77;7.35;;;;;;;18.93;53.83;99159.00;8350098;28;20037;-64
2022/04/23 15:21:24;;;;;;;11.48;8.40;;;;;;;18.94;55.45;99153.28;8346336;28;20135;-64
2022/04/23 15:25:24;;;;;;;13.27;7.70;;;;;;;19.23;55.41;99157.19;8341703;28;20169;-64
2022/04/23 15:29:26;;;;;;;19.73;8.95;;;;;;;19.15;54.84;99152.84;8344636;28;20286;-64
2022/04/23 15:33:26;;;;;;;12.60;8.38;;;;;;;18.89;55.89;99149.56;8351142;28;20033;-64
2022/04/23 15:37:26;;;;;;;11.05;7.95;;;;;;;18.66;56.03;99154.88;8344897;28;20052;-64
2022/04/23 15:41:28;;;;;;;11.57;7.68;;;;;;;18.74;55.14;99158.16;8348878;28;20044;-64
2022/04/23 15:45:28;;;;;;;13.35;9.77;;;;;;;18.74;56.67;99163.63;8352942;28;20071;-64
2022/04/23 15:49:29;;;;;;;16.30;11.38;;;;;;;18.54;57.43;99168.44;8343784;28;20067;-65
2022/04/23 15:53:29;;;;;;;15.68;10.85;;;;;;;18.47;58.19;99164.94;8345386;28;20052;-64
2022/04/23 15:57:29;;;;;;;17.35;11.77;;;;;;;18.28;58.59;99151.38;8349594;28;20401;-64
2022/04/23 16:01:30;;;;;;;17.30;12.20;;;;;;;18.13;58.24;99151.72;8370337;28;20065;-64
2022/04/23 16:05:31;;;;;;;17.73;12.25;;;;;;;18.15;59.18;99152.34;8357998;28;20456;-64
2022/04/23 16:09:32;;;;;;;14.55;10.63;;;;;;;18.16;59.17;99150.44;8351996;28;20067;-64
2022/04/23 16:13:33;;;;;;;18.92;13.45;;;;;;;18.22;58.64;99158.59;8356874;28;20044;-64
2022/04/23 16:17:33;;;;;;;18.23;12.63;;;;;;;18.10;59.56;99154.91;8353970;28;20044;-64
2022/04/23 16:21:33;;;;;;;17.85;13.23;;;;;;;17.97;59.37;99160.47;8366881;28;20313;-64
2022/04/23 16:25:34;;;;;;;21.00;13.63;;;;;;;17.89;59.72;99149.78;8353146;28;20028;-65
2022/04/23 16:29:35;;;;;;;22.95;13.32;;;;;;;17.82;60.71;99149.00;8350091;28;20784;-64
2022/04/23 16:33:36;;;;;;;19.75;13.52;;;;;;;17.81;59.85;99157.41;8362138;28;20047;-64
2022/04/23 16:46:48;;;;;;;21.08;14.48;;;;;;;17.56;59.83;99163.66;8353719;28;20120;-64
2022/04/23 16:50:39;;;;;;;20.75;13.13;;;;;;;17.48;60.12;99171.28;8357535;28;20143;-64
2022/04/23 16:54:40;;;;;;;21.40;13.93;;;;;;;17.42;60.53;99161.19;8357987;28;20575;-64
2022/04/23 16:58:40;;;;;;;20.00;13.80;;;;;;;17.40;60.33;99157.81;8357142;28;20448;-64
2022/04/23 17:02:40;;;;;;;22.13;14.05;;;;;;;17.34;60.98;99154.06;8354101;28;20127;-64
2022/04/23 17:06:41;;;;;;;17.50;13.33;;;;;;;17.29;60.88;99155.75;8350029;28;20404;-64
2022/04/23 17:10:42;;;;;;;21.80;15.00;;;;;;;17.23;60.34;99162.91;8349557;28;20353;-64
2022/04/23 17:14:42;;;;;;;23.88;15.43;;;;;;;17.19;60.50;99160.84;8351500;28;20091;-65
2022/04/23 17:18:42;;;;;;;24.13;15.13;;;;;;;17.08;60.98;99156.06;8350207;28;20037;-65
2022/04/23 17:22:43;;;;;;;21.70;14.98;;;;;;;17.00;61.26;99159.88;8353281;28;20286;-65
2022/04/23 17:26:46;;;;;;;24.10;15.38;;;;;;;17.00;61.34;99148.09;8354249;28;20037;-65
2022/04/23 17:30:46;;;;;;;21.48;14.55;;;;;;;16.96;61.90;99155.06;8358844;28;20052;-65
2022/04/23 17:34:47;;;;;;;21.17;14.60;;;;;;;16.90;61.98;99147.72;8360971;28;20044;-64
2022/04/23 17:38:54;;;;;;;24.50;16.45;;;;;;;16.87;62.53;99148.13;8355526;28;20187;-64
2022/04/23 17:42:55;;;;;;;21.65;15.68;;;;;;;16.83;61.87;99160.50;8339411;28;20040;-64
2022/04/23 17:46:55;;;;;;;21.23;15.07;;;;;;;16.79;61.79;99154.66;8352346;28;20044;-64
2022/04/23 17:50:56;;;;;;;23.23;14.95;;;;;;;16.79;61.67;99153.81;8353224;28;20045;-63
2022/04/23 17:54:56;;;;;;;19.83;14.48;;;;;;;16.71;61.79;99152.16;8363481;28;20102;-64
2022/04/23 17:58:58;;;;;;;19.05;14.05;;;;;;;16.58;62.99;99148.59;8355338;28;20047;-64
2022/04/23 18:07:28;;;;;;;18.42;13.18;;;;;;;16.35;63.44;99146.28;8354598;28;20037;-64
2022/04/23 18:11:28;;;;;;;18.42;13.93;;;;;;;16.37;63.04;99149.66;8354263;28;20045;-64
2022/04/23 18:15:28;;;;;;;18.58;12.82;;;;;;;16.29;63.58;99151.75;8348253;28;20064;-64
2022/04/23 18:19:30;;;;;;;17.87;13.27;;;;;;;16.27;63.58;99153.84;8349148;28;20148;-64
2022/04/23 18:23:31;;;;;;;19.58;14.25;;;;;;;16.23;63.94;99149.88;8354924;28;20276;-64
2022/04/23 18:27:32;;;;;;;21.05;14.23;;;;;;;16.18;63.98;99152.38;8347646;28;20051;-64
2022/04/23 18:31:33;;;;;;;19.17;13.07;;;;;;;16.05;64.80;99138.75;8351940;28;20037;-64
2022/04/23 18:35:33;;;;;;;20.15;14.60;;;;;;;15.96;65.14;99146.28;8344083;28;20545;-64
2022/04/23 18:39:34;;;;;;;18.70;13.75;;;;;;;16.08;64.21;99144.63;8351112;28;20590;-65
2022/04/23 18:43:34;;;;;;;18.52;13.50;;;;;;;16.09;64.65;99146.31;8352866;28;20591;-64
2022/04/23 18:47:36;;;;;;;18.88;13.88;;;;;;;16.08;64.58;99133.72;8344442;28;20124;-64
2022/04/23 18:51:38;;;;;;;20.75;13.27;;;;;;;16.12;64.24;99129.53;8346967;28;20614;-64
2022/04/23 18:55:38;;;;;;;17.50;12.75;;;;;;;16.03;64.97;99136.22;8347075;28;20036;-64
2022/04/23 18:59:39;;;;;;;18.45;12.70;;;;;;;15.94;65.34;99133.91;8353797;28;20075;-64
2022/04/23 19:03:40;;;;;;;18.60;13.23;;;;;;;15.90;65.50;99138.09;8354583;28;20886;-64
2022/04/23 19:07:41;;;;;;;17.30;12.93;;;;;;;15.89;65.56;99133.72;8347306;28;20037;-64
2022/04/23 19:11:42;;;;;;;17.95;13.05;;;;;;;15.86;65.47;99134.13;8345718;28;20452;-64
2022/04/23 19:15:42;;;;;;;15.73;12.70;;;;;;;15.81;65.43;99136.63;8350463;28;20518;-65
2022/04/23 19:19:43;;;;;;;20.65;13.30;;;;;;;15.73;65.64;99130.34;8353721;28;20392;-63
2022/04/23 19:28:05;;;;;;;17.88;13.00;;;;;;;15.66;66.23;99129.50;8356406;28;20563;-63
2022/04/23 19:32:05;;;;;;;20.60;11.50;;;;;;;15.62;66.30;99130.94;8348314;28;20495;-64